Native Dancer — WDH7934 — position and weather

sailwx.info

Track history (hours):
 
Tides and Currents Weather Stations Pressure Air Temp Water Temp Dewpoint Dewpoint Depression Visibility Wind Speed Wind Dir Waves Ship Positions

Native Dancer

Owner: Turn Services, LLC, New Orleans, LA. More information available from US FCC via Universal Licensing System and Coast Guard Vessel Documentation Center.

Last reported at 2018-Jul-11 02:53 UTC. Time now 2018-Jul-16 14:43 UTC.
Position N 29°36' W 090°58'.

Length 22 m; draft 3 m.

Type: Towing. MMSI: 367653030.

Date/timePositionNaut miles runAvg speedWind from/ knotsBaromVisibWave heightAir tempDewpointWater temp
2018-Jul-11 02:53N 29°36' W 090°58'2 4.0
2018-Jul-11 02:21N 29°34' W 090°57'1 4.2
2018-Jul-11 02:00N 29°34' W 090°55'2 4.2
2018-Jul-11 01:28N 29°32' W 090°53'2 4.0
2018-Jul-11 00:57N 29°32' W 090°51'2 4.2
2018-Jul-11 00:30N 29°32' W 090°48'2 4.0
2018-Jul-11 00:01N 29°32' W 090°46'2 3.5
2018-Jul-10 23:30N 29°34' W 090°45'2 3.7
2018-Jul-10 23:00N 29°34' W 090°43'0 0.0
2018-Jul-10 22:30N 29°34' W 090°43'0 0.1
2018-Jul-10 22:00N 29°34' W 090°43'1 2.2
2018-Jul-10 21:30N 29°35' W 090°43'1 2.7
2018-Jul-10 21:00N 29°37' W 090°42'0 0.7
2018-Jul-10 20:30N 29°37' W 090°42'0 1.0
2018-Jul-10 20:00N 29°37' W 090°42'0 0.0
2018-Jul-10 19:30N 29°37' W 090°42'0 0.1
2018-Jul-10 19:00N 29°37' W 090°42'1 2.3
2018-Jul-10 18:30N 29°36' W 090°40'1 2.6
2018-Jul-10 18:00N 29°36' W 090°39'2 3.5
2018-Jul-10 17:30N 29°35' W 090°37'2 3.3
2018-Jul-10 16:57N 29°35' W 090°35'2 3.5
2018-Jul-10 16:30N 29°34' W 090°34'  
2018-Jul-07 12:59N 29°34' W 090°23'0 0.1
2018-Jul-07 12:28N 29°34' W 090°23'0 0.1
2018-Jul-07 12:00N 29°34' W 090°23'0 0.0
2018-Jul-06 11:33N 29°34' W 090°23'  
2018-Jul-04 06:14N 29°33' W 090°24'3 3.7
2018-Jul-04 05:31N 29°33' W 090°27'1 4.1
2018-Jul-04 05:22N 29°33' W 090°27'2 4.2
2018-Jul-04 04:53N 29°34' W 090°30'2 4.2
2018-Jul-04 04:30N 29°34' W 090°32'2 4.1
2018-Jul-04 03:59N 29°34' W 090°34'2 4.0
2018-Jul-04 03:29N 29°35' W 090°36'2 3.8
2018-Jul-04 03:00N 29°35' W 090°38'2 3.3
2018-Jul-04 02:30N 29°36' W 090°40'2 4.1
2018-Jul-04 02:00N 29°37' W 090°42'2 3.2
2018-Jul-04 01:30N 29°35' W 090°43'2 3.2
2018-Jul-04 00:59N 29°34' W 090°44'1 3.0
2018-Jul-04 00:30N 29°33' W 090°45'2 4.2
2018-Jul-03 23:59N 29°32' W 090°47'2 4.9
2018-Jul-03 23:30N 29°32' W 090°50'58 1.5
2018-Jul-02 08:32N 29°56' W 091°50'0 0.2
2018-Jul-02 08:07N 29°56' W 091°50'0 0.2
2018-Jul-02 07:42N 29°56' W 091°50'0 0.3
2018-Jul-02 06:40N 29°56' W 091°50'49 2.2
2018-Jul-01 08:05N 29°36' W 090°58'2 3.9
2018-Jul-01 07:34N 29°34' W 090°57'0 1.3
2018-Jul-01 07:30N 29°34' W 090°57'  
Track history (hours):
 
Tides and Currents Weather Stations Pressure Air Temp Water Temp Dewpoint Dewpoint Depression Visibility Wind Speed Wind Dir Waves Ship Positions

Native Dancer

Owner: Turn Services, LLC, New Orleans, LA. More information available from US FCC via Universal Licensing System and Coast Guard Vessel Documentation Center.

Last reported at 2018-Jul-11 02:53 UTC. Time now 2018-Jul-16 14:43 UTC.
Position N 29°36' W 090°58'.

Length 22 m; draft 3 m.

Type: Towing. MMSI: 367653030.

Date/timePositionNaut miles runAvg speedWind from/ knotsBaromVisibWave heightAir tempDewpointWater temp
2018-Jul-11 02:53N 29°36' W 090°58'2 4.0
2018-Jul-11 02:21N 29°34' W 090°57'1 4.2
2018-Jul-11 02:00N 29°34' W 090°55'2 4.2
2018-Jul-11 01:28N 29°32' W 090°53'2 4.0
2018-Jul-11 00:57N 29°32' W 090°51'2 4.2
2018-Jul-11 00:30N 29°32' W 090°48'2 4.0
2018-Jul-11 00:01N 29°32' W 090°46'2 3.5
2018-Jul-10 23:30N 29°34' W 090°45'2 3.7
2018-Jul-10 23:00N 29°34' W 090°43'0 0.0
2018-Jul-10 22:30N 29°34' W 090°43'0 0.1
2018-Jul-10 22:00N 29°34' W 090°43'1 2.2
2018-Jul-10 21:30N 29°35' W 090°43'1 2.7
2018-Jul-10 21:00N 29°37' W 090°42'0 0.7
2018-Jul-10 20:30N 29°37' W 090°42'0 1.0
2018-Jul-10 20:00N 29°37' W 090°42'0 0.0
2018-Jul-10 19:30N 29°37' W 090°42'0 0.1
2018-Jul-10 19:00N 29°37' W 090°42'1 2.3
2018-Jul-10 18:30N 29°36' W 090°40'1 2.6
2018-Jul-10 18:00N 29°36' W 090°39'2 3.5
2018-Jul-10 17:30N 29°35' W 090°37'2 3.3
2018-Jul-10 16:57N 29°35' W 090°35'2 3.5
2018-Jul-10 16:30N 29°34' W 090°34'  
2018-Jul-07 12:59N 29°34' W 090°23'0 0.1
2018-Jul-07 12:28N 29°34' W 090°23'0 0.1
2018-Jul-07 12:00N 29°34' W 090°23'0 0.0
2018-Jul-06 11:33N 29°34' W 090°23'  
2018-Jul-04 06:14N 29°33' W 090°24'3 3.7
2018-Jul-04 05:31N 29°33' W 090°27'1 4.1
2018-Jul-04 05:22N 29°33' W 090°27'2 4.2
2018-Jul-04 04:53N 29°34' W 090°30'2 4.2
2018-Jul-04 04:30N 29°34' W 090°32'2 4.1
2018-Jul-04 03:59N 29°34' W 090°34'2 4.0
2018-Jul-04 03:29N 29°35' W 090°36'2 3.8
2018-Jul-04 03:00N 29°35' W 090°38'2 3.3
2018-Jul-04 02:30N 29°36' W 090°40'2 4.1
2018-Jul-04 02:00N 29°37' W 090°42'2 3.2
2018-Jul-04 01:30N 29°35' W 090°43'2 3.2
2018-Jul-04 00:59N 29°34' W 090°44'1 3.0
2018-Jul-04 00:30N 29°33' W 090°45'2 4.2
2018-Jul-03 23:59N 29°32' W 090°47'2 4.9
2018-Jul-03 23:30N 29°32' W 090°50'58 1.5
2018-Jul-02 08:32N 29°56' W 091°50'0 0.2
2018-Jul-02 08:07N 29°56' W 091°50'0 0.2
2018-Jul-02 07:42N 29°56' W 091°50'0 0.3
2018-Jul-02 06:40N 29°56' W 091°50'49 2.2
2018-Jul-01 08:05N 29°36' W 090°58'2 3.9
2018-Jul-01 07:34N 29°34' W 090°57'0 1.3
2018-Jul-01 07:30N 29°34' W 090°57'  

Dump ship's entire track history